Time;durP1;ratioP1;P1;durP2;ratioP2;P2;SDS_P1;SDS_P2;PMS_P1;PMS_P2;Temp;Humidity;BMP_temperature;BMP_pressure;BME280_temperature;BME280_humidity;BME280_pressure;Samples;Min_cycle;Max_cycle;Signal;HPM_P1;HPM_P2
2021/07/22 00:02:14;;;;;;;12.32;8.52;;;25.90;52.30;;;;;;5076703;28;20021;-75
2021/07/22 00:04:41;;;;;;;19.95;8.55;;;25.90;52.20;;;;;;5058522;28;20032;-70
2021/07/22 00:07:07;;;;;;;13.43;8.40;;;25.80;52.10;;;;;;5076574;28;20025;-70
2021/07/22 00:09:32;;;;;;;10.75;9.32;;;25.80;52.30;;;;;;5076617;28;20028;-71
2021/07/22 00:11:58;;;;;;;11.90;8.77;;;25.80;52.20;;;;;;5076406;28;20488;-70
2021/07/22 00:14:28;;;;;;;10.88;9.20;;;25.80;52.40;;;;;;5076481;28;20024;-71
2021/07/22 00:16:54;;;;;;;13.38;8.57;;;25.80;52.40;;;;;;5076334;28;20389;-74
2021/07/22 00:19:20;;;;;;;9.52;8.35;;;25.80;52.50;;;;;;5076240;28;20021;-70
2021/07/22 00:21:45;;;;;;;15.63;8.55;;;25.80;52.70;;;;;;5076374;28;20099;-70
2021/07/22 00:24:11;;;;;;;10.48;8.38;;;25.70;52.80;;;;;;5076250;28;20024;-75
2021/07/22 00:26:38;;;;;;;11.13;8.65;;;25.80;53.20;;;;;;5076155;28;20013;-71
2021/07/22 00:29:03;;;;;;;14.90;8.60;;;25.70;53.40;;;;;;5076224;28;20021;-71
2021/07/22 00:31:29;;;;;;;11.55;9.60;;;25.70;53.40;;;;;;5076210;28;20036;-70
2021/07/22 00:33:55;;;;;;;15.95;9.52;;;25.70;53.30;;;;;;5076246;28;20024;-70
2021/07/22 00:36:20;;;;;;;11.20;9.00;;;25.70;53.30;;;;;;5076050;28;20365;-70
2021/07/22 00:38:49;;;;;;;14.43;9.15;;;25.70;53.00;;;;;;5075920;28;20469;-70
2021/07/22 00:41:15;;;;;;;11.32;9.27;;;25.70;52.90;;;;;;5076185;28;20411;-70
2021/07/22 00:43:41;;;;;;;12.57;8.82;;;25.60;52.80;;;;;;5076107;28;20062;-75
2021/07/22 00:46:11;;;;;;;9.93;8.82;;;25.60;52.90;;;;;;5075900;28;20473;-74
2021/07/22 00:48:37;;;;;;;11.18;9.13;;;;;;;;;;5075829;28;20126;-74
2021/07/22 00:51:03;;;;;;;10.10;8.18;;;25.60;52.90;;;;;;5075939;28;20025;-70
2021/07/22 00:53:29;;;;;;;10.13;8.93;;;25.50;53.30;;;;;;5075683;28;20040;-70
2021/07/22 00:55:55;;;;;;;10.80;8.30;;;25.50;53.30;;;;;;5075810;28;20354;-71
2021/07/22 00:58:20;;;;;;;14.55;9.57;;;25.50;53.30;;;;;;5074195;28;20028;-69
2021/07/22 01:00:46;;;;;;;10.68;9.00;;;25.50;53.50;;;;;;5072700;28;20060;-71
2021/07/22 01:03:12;;;;;;;12.32;9.23;;;25.50;53.50;;;;;;5071373;28;20021;-70
2021/07/22 01:05:38;;;;;;;10.07;8.68;;;25.50;53.50;;;;;;5074428;28;20472;-70
2021/07/22 01:08:03;;;;;;;11.93;9.40;;;25.40;53.40;;;;;;5075196;28;20020;-70
2021/07/22 01:10:30;;;;;;;13.60;9.10;;;;;;;;;;5075484;28;20052;-71
2021/07/22 01:12:56;;;;;;;11.98;9.43;;;25.40;53.50;;;;;;5075094;28;20039;-75
2021/07/22 01:15:21;;;;;;;10.35;8.15;;;25.40;54.10;;;;;;5075307;28;20032;-70
2021/07/22 01:17:49;;;;;;;11.13;9.32;;;25.40;54.00;;;;;;5075491;28;20095;-71
2021/07/22 01:20:23;;;;;;;10.38;9.05;;;25.40;54.10;;;;;;5074562;28;20031;-70
2021/07/22 01:22:50;;;;;;;9.57;8.57;;;25.40;54.40;;;;;;5074766;28;20073;-70
2021/07/22 01:25:18;;;;;;;10.50;8.77;;;25.30;54.10;;;;;;5075069;28;20416;-70
2021/07/22 01:27:45;;;;;;;12.38;9.45;;;25.30;54.00;;;;;;5074846;28;20024;-70
2021/07/22 01:30:11;;;;;;;10.57;8.27;;;25.30;54.00;;;;;;5075033;28;20028;-75
2021/07/22 01:32:37;;;;;;;13.38;9.23;;;25.30;54.10;;;;;;5074868;28;20039;-70
2021/07/22 01:35:04;;;;;;;29.67;10.27;;;25.30;54.20;;;;;;5074554;28;20021;-70
2021/07/22 01:37:29;;;;;;;12.30;9.70;;;25.30;54.40;;;;;;5074713;28;20025;-70
2021/07/22 01:39:55;;;;;;;13.05;9.50;;;25.30;54.50;;;;;;5075176;28;20044;-70
2021/07/22 01:42:21;;;;;;;10.82;8.98;;;25.20;54.50;;;;;;5074930;28;20040;-70
2021/07/22 01:44:47;;;;;;;10.27;8.95;;;25.30;54.50;;;;;;5074486;28;20569;-71
2021/07/22 01:47:13;;;;;;;12.13;9.20;;;25.30;54.60;;;;;;5074608;28;20091;-70
2021/07/22 01:49:38;;;;;;;14.05;9.15;;;25.20;54.60;;;;;;5074644;28;20091;-70
2021/07/22 01:52:05;;;;;;;11.20;9.38;;;25.20;54.40;;;;;;5074383;28;20064;-70
2021/07/22 01:54:32;;;;;;;10.25;9.20;;;25.20;54.70;;;;;;5074368;28;20496;-71
2021/07/22 01:57:02;;;;;;;13.23;9.82;;;25.30;59.90;;;;;;5074472;28;20112;-71
2021/07/22 01:59:36;;;;;;;13.38;8.93;;;25.20;58.20;;;;;;5074492;28;20020;-71
2021/07/22 02:02:06;;;;;;;12.23;9.30;;;25.20;55.40;;;;;;5074435;28;20052;-75
2021/07/22 02:04:33;;;;;;;12.27;9.30;;;25.10;55.10;;;;;;5074186;28;20062;-71
2021/07/22 02:06:59;;;;;;;12.07;9.38;;;25.10;55.40;;;;;;5074451;28;20421;-70
2021/07/22 02:09:26;;;;;;;12.40;9.15;;;;;;;;;;5074478;28;20024;-71
2021/07/22 02:11:53;;;;;;;11.43;9.27;;;25.00;54.60;;;;;;5074187;28;20067;-71
2021/07/22 02:14:19;;;;;;;13.20;8.70;;;25.00;55.10;;;;;;5073691;28;20028;-76
2021/07/22 02:16:45;;;;;;;10.48;9.25;;;25.00;54.90;;;;;;5074343;28;20035;-76
2021/07/22 02:19:10;;;;;;;11.73;8.88;;;25.00;55.00;;;;;;5074039;28;20028;-71
2021/07/22 02:21:40;;;;;;;11.98;9.45;;;25.00;55.10;;;;;;5073926;28;20017;-71
2021/07/22 02:24:06;;;;;;;9.77;8.77;;;25.00;55.10;;;;;;5073920;28;20127;-71
2021/07/22 02:26:33;;;;;;;11.15;9.25;;;25.00;55.00;;;;;;5074126;28;20050;-71
2021/07/22 02:29:01;;;;;;;10.20;9.10;;;25.00;55.00;;;;;;5073880;28;20024;-72
2021/07/22 02:31:27;;;;;;;11.80;9.02;;;25.00;55.00;;;;;;5073979;28;20531;-71
2021/07/22 02:33:52;;;;;;;16.60;9.70;;;25.00;55.10;;;;;;5073627;28;20025;-71
2021/07/22 02:36:18;;;;;;;12.88;9.50;;;25.00;55.00;;;;;;5073751;28;20029;-71
2021/07/22 02:38:44;;;;;;;10.40;9.18;;;25.00;54.90;;;;;;5073752;28;20020;-70
2021/07/22 02:41:09;;;;;;;10.68;8.88;;;24.90;54.90;;;;;;5073240;28;20499;-71
2021/07/22 02:43:35;;;;;;;11.23;9.50;;;24.90;54.90;;;;;;5073191;28;20032;-76
2021/07/22 02:46:07;;;;;;;14.88;9.40;;;24.90;54.90;;;;;;5073364;28;20070;-71
2021/07/22 02:48:34;;;;;;;12.00;9.25;;;24.90;54.90;;;;;;5073457;28;20033;-72
2021/07/22 02:51:04;;;;;;;11.75;9.57;;;25.00;54.90;;;;;;5073680;28;20028;-70
2021/07/22 02:53:29;;;;;;;12.95;9.38;;;24.90;54.90;;;;;;5073172;28;20032;-71
2021/07/22 02:55:57;;;;;;;10.13;8.90;;;24.90;54.90;;;;;;5073285;28;20031;-71
2021/07/22 02:58:22;;;;;;;22.13;9.57;;;24.90;54.90;;;;;;5073312;28;20074;-71
2021/07/22 03:00:48;;;;;;;15.15;9.20;;;24.90;54.80;;;;;;5073345;28;20032;-71
2021/07/22 03:03:14;;;;;;;12.35;9.75;;;24.90;54.80;;;;;;5073288;28;20024;-76
2021/07/22 03:05:39;;;;;;;13.40;8.70;;;24.90;54.70;;;;;;5073441;28;20036;-71
2021/07/22 03:08:05;;;;;;;15.07;9.95;;;24.90;54.40;;;;;;5073447;28;20020;-71
2021/07/22 03:10:31;;;;;;;11.10;9.85;;;24.80;54.30;;;;;;5073162;28;20040;-71
2021/07/22 03:12:57;;;;;;;11.23;9.43;;;24.80;53.70;;;;;;5072895;28;20033;-71
2021/07/22 03:15:23;;;;;;;13.57;9.50;;;24.80;54.30;;;;;;5073201;28;20031;-71
2021/07/22 03:17:49;;;;;;;14.88;9.98;;;24.70;54.10;;;;;;5073247;28;20111;-72
2021/07/22 03:20:15;;;;;;;14.88;9.85;;;;;;;;;;5073171;28;20404;-70
2021/07/22 03:22:41;;;;;;;10.23;9.20;;;24.70;53.80;;;;;;5073212;28;20025;-74
2021/07/22 03:25:08;;;;;;;11.60;9.52;;;24.70;54.50;;;;;;5073033;28;20024;-71
2021/07/22 03:27:34;;;;;;;14.07;9.40;;;;;;;;;;5072409;28;20028;-71
2021/07/22 03:30:00;;;;;;;11.63;9.63;;;24.70;54.40;;;;;;5073076;28;20024;-71
2021/07/22 03:32:25;;;;;;;14.35;9.60;;;24.70;54.80;;;;;;5073215;28;20037;-76
2021/07/22 03:34:51;;;;;;;10.77;8.98;;;24.70;54.80;;;;;;5072802;28;20020;-71
2021/07/22 03:37:17;;;;;;;12.18;9.30;;;24.60;54.80;;;;;;5073011;28;20025;-76
2021/07/22 03:39:43;;;;;;;12.20;8.98;;;24.60;55.00;;;;;;5072863;28;20025;-71
2021/07/22 03:42:08;;;;;;;10.95;9.50;;;24.60;54.90;;;;;;5072862;28;20019;-71
2021/07/22 03:44:35;;;;;;;12.70;9.52;;;;;;;;;;5072620;28;20056;-71
2021/07/22 03:47:02;;;;;;;11.80;9.55;;;;;;;;;;5072593;28;20052;-71
2021/07/22 03:49:27;;;;;;;14.68;9.57;;;24.60;54.70;;;;;;5073014;28;20126;-75
2021/07/22 03:51:57;;;;;;;20.60;10.30;;;24.50;55.00;;;;;;5072916;28;20021;-76
2021/07/22 03:54:23;;;;;;;12.00;9.18;;;24.50;55.00;;;;;;5072887;28;20032;-71
2021/07/22 03:56:49;;;;;;;11.30;8.88;;;;;;;;;;5072889;28;20081;-71
2021/07/22 03:59:15;;;;;;;17.02;8.82;;;24.50;54.30;;;;;;5072729;28;20041;-71
2021/07/22 04:01:41;;;;;;;11.35;9.20;;;24.50;54.60;;;;;;5072806;28;20042;-71
2021/07/22 04:04:07;;;;;;;15.65;9.38;;;24.50;54.50;;;;;;5072836;28;20032;-71
2021/07/22 04:06:37;;;;;;;10.95;9.38;;;24.50;54.60;;;;;;5072698;28;20017;-70
2021/07/22 04:09:03;;;;;;;11.27;9.15;;;24.50;54.80;;;;;;5072512;28;20492;-71
2021/07/22 04:11:30;;;;;;;13.23;9.68;;;24.50;54.90;;;;;;5072341;28;20016;-71
2021/07/22 04:13:55;;;;;;;12.93;9.30;;;24.50;55.00;;;;;;5072719;28;20425;-71
2021/07/22 04:16:21;;;;;;;15.10;9.68;;;24.50;55.10;;;;;;5072581;28;20063;-71
2021/07/22 04:18:47;;;;;;;12.95;9.48;;;24.50;54.90;;;;;;5072722;28;20056;-71
2021/07/22 04:21:12;;;;;;;14.20;9.45;;;24.50;54.50;;;;;;5072670;28;20027;-76
2021/07/22 04:23:38;;;;;;;11.88;9.30;;;24.60;54.60;;;;;;5072436;28;20071;-73
2021/07/22 04:26:04;;;;;;;14.40;8.88;;;24.50;54.70;;;;;;5072757;28;20023;-76
2021/07/22 04:28:30;;;;;;;11.63;8.95;;;24.50;54.60;;;;;;5072207;28;20550;-71
2021/07/22 04:30:55;;;;;;;12.98;9.48;;;24.50;54.30;;;;;;5071244;28;20423;-70
2021/07/22 04:33:21;;;;;;;12.32;9.25;;;24.50;54.20;;;;;;5071985;28;20091;-76
2021/07/22 04:35:47;;;;;;;13.60;9.05;;;24.50;54.10;;;;;;5072434;28;20039;-77
2021/07/22 04:38:13;;;;;;;10.02;8.63;;;24.50;54.10;;;;;;5073896;28;20390;-71
2021/07/22 04:40:38;;;;;;;12.25;8.95;;;24.50;54.10;;;;;;5075885;28;20021;-75
2021/07/22 04:43:04;;;;;;;11.98;9.07;;;24.50;54.20;;;;;;5075793;28;20028;-76
2021/07/22 04:45:30;;;;;;;17.40;9.80;;;24.50;54.30;;;;;;5075104;28;20067;-71
2021/07/22 04:47:55;;;;;;;11.90;9.55;;;24.60;54.30;;;;;;5074341;28;20526;-71
2021/07/22 04:50:21;;;;;;;13.80;9.48;;;24.60;54.40;;;;;;5074676;28;20050;-72
2021/07/22 04:52:47;;;;;;;12.80;9.30;;;24.60;54.40;;;;;;5074824;28;20047;-73
2021/07/22 04:55:13;;;;;;;12.10;9.30;;;24.60;54.10;;;;;;5075805;28;20480;-71
2021/07/22 04:57:38;;;;;;;12.77;8.90;;;24.60;54.00;;;;;;5075225;28;20062;-70
2021/07/22 05:00:05;;;;;;;13.93;8.80;;;24.70;54.10;;;;;;5074828;28;20099;-71
2021/07/22 05:02:31;;;;;;;13.00;9.77;;;24.70;54.90;;;;;;5074695;28;20028;-77
2021/07/22 05:04:57;;;;;;;12.05;9.57;;;24.70;54.20;;;;;;5075906;28;20024;-77
2021/07/22 05:07:22;;;;;;;12.73;9.02;;;24.70;53.70;;;;;;5075732;28;20036;-77
2021/07/22 05:09:48;;;;;;;14.90;9.55;;;24.80;54.00;;;;;;5075598;28;20028;-74
2021/07/22 05:12:14;;;;;;;15.63;8.85;;;24.80;54.00;;;;;;5075477;28;20041;-71
2021/07/22 05:14:40;;;;;;;11.30;8.88;;;24.80;53.90;;;;;;5075368;28;20021;-71
2021/07/22 05:17:05;;;;;;;12.27;9.07;;;24.90;53.70;;;;;;5057376;28;20138;-77
2021/07/22 05:19:31;;;;;;;13.23;9.48;;;;;;;;;;5075258;28;20021;-71
2021/07/22 05:21:57;;;;;;;15.90;8.70;;;;;;;;;;5075322;28;20024;-71
2021/07/22 05:24:24;;;;;;;12.23;9.48;;;;;;;;;;5075454;28;20108;-71
2021/07/22 05:26:50;;;;;;;10.73;8.50;;;;;;;;;;5075580;28;20025;-71
2021/07/22 05:29:16;;;;;;;14.23;8.48;;;;;;;;;;5075316;28;20146;-71
2021/07/22 05:31:43;;;;;;;14.63;8.35;;;;;;;;;;5075181;28;20048;-72
2021/07/22 05:34:10;;;;;;;10.85;8.45;;;;;;;;;;5075345;28;20037;-71
2021/07/22 05:36:36;;;;;;;11.52;8.57;;;;;;;;;;5075155;28;20031;-76
2021/07/22 05:39:03;;;;;;;11.30;8.52;;;;;;;;;;5075179;28;20031;-71
2021/07/22 05:41:29;;;;;;;11.38;8.73;;;;;;;;;;5075036;28;20079;-72
2021/07/22 05:43:55;;;;;;;9.68;7.95;;;;;;;;;;5074728;28;20052;-76
2021/07/22 05:46:22;;;;;;;9.27;7.90;;;;;;;;;;5074920;28;20032;-71
2021/07/22 05:48:48;;;;;;;13.48;7.70;;;;;;;;;;5074540;28;20541;-71
2021/07/22 05:51:14;;;;;;;11.45;8.10;;;;;;;;;;5074363;28;20406;-71
2021/07/22 05:53:40;;;;;;;12.75;7.88;;;;;;;;;;5074745;28;20043;-71
2021/07/22 05:56:06;;;;;;;14.02;7.90;;;;;;;;;;5074821;28;20028;-70
2021/07/22 05:58:34;;;;;;;11.40;8.25;;;;;;;;;;5074804;28;20383;-76
2021/07/22 06:01:00;;;;;;;9.65;7.88;;;;;;;;;;5074615;28;20024;-72
2021/07/22 06:03:26;;;;;;;11.43;7.38;;;;;;;;;;5074604;28;20062;-71
2021/07/22 06:05:52;;;;;;;13.52;7.90;;;;;;;;;;5074571;28;20012;-71
2021/07/22 06:08:18;;;;;;;11.68;7.60;;;;;;;;;;5056734;28;20089;-71
2021/07/22 06:10:44;;;;;;;13.30;7.72;;;;;;;;;;5074644;28;20059;-71
2021/07/22 06:13:10;;;;;;;11.50;7.18;;;;;;;;;;5074290;28;20033;-71
2021/07/22 06:15:36;;;;;;;11.27;7.13;;;;;;;;;;5074394;28;20500;-76
2021/07/22 06:18:02;;;;;;;11.23;6.93;;;;;;;;;;5074432;28;20033;-70
2021/07/22 06:20:28;;;;;;;15.15;7.20;;;;;;;;;;5074216;28;20108;-71
2021/07/22 06:22:54;;;;;;;12.60;6.80;;;;;;;;;;5074226;28;20036;-71
2021/07/22 06:25:20;;;;;;;11.35;6.93;;;;;;;;;;5074189;28;20028;-71
2021/07/22 06:27:47;;;;;;;11.70;6.90;;;;;;;;;;5074196;28;20472;-71
2021/07/22 06:30:13;;;;;;;10.98;6.70;;;;;;;;;;5074087;28;20025;-71
2021/07/22 06:32:39;;;;;;;12.48;6.72;;;;;;;;;;5073899;28;20472;-71
2021/07/22 06:35:05;;;;;;;17.80;7.22;;;;;;;;;;5074019;28;20037;-77
2021/07/22 06:37:44;;;;;;;11.70;6.55;;;;;;;;;;5074118;28;20031;-71
2021/07/22 06:40:11;;;;;;;10.48;6.40;;;;;;;;;;5072983;28;20165;-71
2021/07/22 06:42:37;;;;;;;7.97;6.85;;;;;;;;;;5073371;28;20484;-71
2021/07/22 06:45:03;;;;;;;9.32;7.07;;;;;;;;;;5100842;22;20044;-71
2021/07/22 06:47:30;;;;;;;7.47;6.43;;;;;;;;;;5093807;28;20063;-72
2021/07/22 06:49:56;;;;;;;8.82;6.47;;;;;;;;;;5093683;28;20021;-71
2021/07/22 06:52:22;;;;;;;9.48;6.80;;;;;;;;;;5093912;28;20038;-71
2021/07/22 06:54:48;;;;;;;10.52;6.13;;;;;;;;;;5093784;28;20028;-71
2021/07/22 06:57:14;;;;;;;15.27;6.85;;;;;;;;;;5075551;28;20540;-71
2021/07/22 06:59:40;;;;;;;13.20;7.63;;;;;;;;;;5093600;28;20465;-71
2021/07/22 07:02:06;;;;;;;9.70;7.03;;;;;;;;;;5093469;28;20503;-71
2021/07/22 07:04:32;;;;;;;12.02;7.45;;;;;;;;;;5093356;28;20046;-71
2021/07/22 07:06:58;;;;;;;10.70;7.13;;;;;;;;;;5093589;28;20028;-71
2021/07/22 07:09:24;;;;;;;9.40;6.88;;;;;;;;;;5093428;28;20051;-71
2021/07/22 07:11:50;;;;;;;10.63;7.57;;;;;;;;;;5093480;28;20107;-72
2021/07/22 07:14:16;;;;;;;11.25;7.07;;;;;;;;;;5093622;28;20447;-72
2021/07/22 07:16:42;;;;;;;12.93;6.97;;;;;;;;;;5074901;28;20468;-70
2021/07/22 07:19:08;;;;;;;9.80;7.40;;;;;;;;;;5093403;28;20488;-71
2021/07/22 07:21:38;;;;;;;11.88;7.30;;;;;;;;;;5093303;28;20017;-71
2021/07/22 07:24:04;;;;;;;9.68;7.75;;;;;;;;;;5063723;28;20134;-71
2021/07/22 07:26:30;;;;;;;9.07;7.03;;;;;;;;;;5080193;28;20481;-71
2021/07/22 07:28:56;;;;;;;8.70;7.13;;;;;;;;;;5079422;28;20480;-70
2021/07/22 07:31:23;;;;;;;9.52;7.18;;;;;;;;;;5072880;28;20032;-71
2021/07/22 07:33:49;;;;;;;9.52;7.35;;;;;;;;;;5073157;28;20025;-70
2021/07/22 07:36:15;;;;;;;12.68;7.30;;;;;;;;;;5072868;28;20539;-71
2021/07/22 07:38:41;;;;;;;10.07;7.40;;;;;;;;;;5072968;28;20481;-70
2021/07/22 07:41:07;;;;;;;9.88;7.32;;;;;;;;;;5072722;28;20024;-71
2021/07/22 07:43:33;;;;;;;14.75;8.30;;;;;;;;;;5072280;28;20048;-70
2021/07/22 07:45:59;;;;;;;9.95;7.97;;;;;;;;;;5072724;28;20024;-71
2021/07/22 07:48:25;;;;;;;12.38;7.53;;;26.60;48.90;;;;;;5072949;28;20025;-70
2021/07/22 07:50:51;;;;;;;17.55;7.53;;;26.70;49.30;;;;;;5072795;28;20383;-70
2021/07/22 07:53:19;;;;;;;9.32;7.57;;;26.80;49.60;;;;;;5072372;28;20115;-69
2021/07/22 07:55:45;;;;;;;12.82;8.95;;;26.80;49.20;;;;;;5072994;28;20016;-70
2021/07/22 07:58:12;;;;;;;15.10;8.70;;;26.80;48.50;;;;;;5072739;28;20035;-70
2021/07/22 08:00:38;;;;;;;17.30;9.60;;;26.80;48.70;;;;;;5073051;28;20325;-70
2021/07/22 08:03:05;;;;;;;16.05;7.38;;;26.80;49.10;;;;;;5072734;28;20024;-70
2021/07/22 08:05:30;;;;;;;12.45;7.07;;;26.80;49.10;;;;;;5072777;28;20025;-70
2021/07/22 08:07:57;;;;;;;10.45;8.15;;;26.80;47.80;;;;;;5072452;28;20365;-70
2021/07/22 08:10:23;;;;;;;9.60;7.22;;;26.80;48.70;;;;;;5072753;28;20481;-69
2021/07/22 08:12:48;;;;;;;9.98;7.57;;;26.80;49.30;;;;;;5073577;28;20039;-70
2021/07/22 08:15:15;;;;;;;17.50;8.00;;;26.80;49.70;;;;;;5076209;28;20024;-69
2021/07/22 08:17:41;;;;;;;9.27;7.40;;;26.80;49.30;;;;;;5076252;28;20523;-70
2021/07/22 08:20:09;;;;;;;9.52;7.70;;;26.80;49.50;;;;;;5076478;28;20044;-70
2021/07/22 08:22:37;;;;;;;11.48;8.05;;;26.80;48.90;;;;;;5076583;28;20036;-70
2021/07/22 08:25:03;;;;;;;10.10;7.85;;;26.80;48.40;;;;;;5076582;28;20042;-70
2021/07/22 08:27:31;;;;;;;12.50;8.25;;;26.90;48.60;;;;;;5076365;28;20017;-70
2021/07/22 08:29:57;;;;;;;9.30;7.70;;;26.90;48.50;;;;;;5076201;28;20461;-70
2021/07/22 08:32:23;;;;;;;13.55;7.75;;;27.00;48.70;;;;;;5076216;28;20036;-70
2021/07/22 08:34:49;;;;;;;10.63;7.97;;;27.10;48.70;;;;;;5076402;28;20024;-70
2021/07/22 08:37:15;;;;;;;13.25;8.65;;;27.10;48.40;;;;;;5076241;28;20036;-69
2021/07/22 08:39:43;;;;;;;8.75;7.85;;;27.20;48.50;;;;;;5076097;28;20028;-71
2021/07/22 08:42:10;;;;;;;11.15;7.93;;;27.20;48.00;;;;;;5076040;28;20091;-71
2021/07/22 08:44:38;;;;;;;12.48;8.30;;;27.20;48.20;;;;;;5076026;28;20049;-71
2021/07/22 08:47:11;;;;;;;9.32;7.65;;;27.20;48.40;;;;;;5076167;28;20086;-71
2021/07/22 08:49:38;;;;;;;13.00;8.27;;;;;;;;;;5075898;28;20052;-70
2021/07/22 08:52:09;;;;;;;9.27;8.30;;;27.40;76.00;;;;;;5075872;28;20035;-71
2021/07/22 08:54:35;;;;;;;11.43;8.35;;;;;;;;;;5076010;28;20064;-70
2021/07/22 08:57:04;;;;;;;17.45;8.07;;;27.50;58.80;;;;;;5090691;28;20132;-69
2021/07/22 08:59:31;;;;;;;12.10;8.40;;;27.60;60.40;;;;;;5096621;28;20024;-70
2021/07/22 09:01:59;;;;;;;12.13;8.43;;;;;;;;;;5095997;28;20066;-71
2021/07/22 09:04:24;;;;;;;13.52;7.80;;;27.60;47.50;;;;;;5095015;28;20113;-70
2021/07/22 09:06:50;;;;;;;11.45;8.32;;;27.70;47.90;;;;;;5095476;28;20024;-73
2021/07/22 09:09:17;;;;;;;13.35;8.18;;;27.80;46.90;;;;;;5094696;28;20046;-73
2021/07/22 09:11:55;;;;;;;9.15;8.07;;;27.90;46.90;;;;;;5094788;28;20020;-73
2021/07/22 09:14:21;;;;;;;11.23;8.38;;;27.90;46.80;;;;;;5095512;28;20032;-73
2021/07/22 09:16:47;;;;;;;10.27;8.25;;;27.90;46.50;;;;;;5094911;28;20149;-72
2021/07/22 09:19:37;;;;;;;11.70;7.97;;;27.90;46.00;;;;;;5095709;28;20107;-73
2021/07/22 09:22:05;;;;;;;14.43;8.15;;;27.80;46.20;;;;;;5095751;28;20020;-71
2021/07/22 09:24:46;;;;;;;13.23;8.68;;;27.90;47.20;;;;;;5094625;28;20068;-74
2021/07/22 09:27:41;;;;;;;10.38;8.40;;;27.90;47.20;;;;;;5095814;28;20036;-73
2021/07/22 09:30:07;;;;;;;13.25;8.02;;;28.00;46.90;;;;;;5095721;28;20035;-72
2021/07/22 09:32:34;;;;;;;11.63;7.93;;;28.00;46.70;;;;;;5095665;28;20414;-72
2021/07/22 09:35:23;;;;;;;10.45;8.18;;;28.00;46.70;;;;;;5095550;28;20418;-73
2021/07/22 09:39:18;;;;;;;10.45;8.02;;;28.00;46.30;;;;;;5077052;28;20032;-73
2021/07/22 09:42:07;;;;;;;12.25;8.38;;;28.00;46.20;;;;;;4981356;28;20030;-73
2021/07/22 09:44:38;;;;;;;11.85;8.23;;;28.00;45.50;;;;;;5079183;28;20453;-72
2021/07/22 09:47:07;;;;;;;10.55;8.38;;;28.00;46.20;;;;;;5077356;28;20429;-72
2021/07/22 09:50:07;;;;;;;10.52;7.90;;;28.00;45.80;;;;;;5077271;28;20028;-73
2021/07/22 09:52:37;;;;;;;19.20;8.85;;;28.00;45.90;;;;;;5072261;28;20044;-73
2021/07/22 09:55:32;;;;;;;11.73;8.40;;;27.90;46.10;;;;;;5077060;28;20115;-72
2021/07/22 09:58:22;;;;;;;10.93;8.80;;;28.00;46.50;;;;;;5077176;28;20023;-71
2021/07/22 10:04:23;;;;;;;15.93;8.90;;;27.90;46.10;;;;;;5037377;28;20088;-72
2021/07/22 10:07:02;;;;;;;12.95;8.18;;;27.90;46.10;;;;;;5095457;28;20024;-73
2021/07/22 10:09:47;;;;;;;9.57;8.05;;;27.90;45.90;;;;;;5095376;28;20358;-72
2021/07/22 10:12:42;;;;;;;17.17;8.95;;;27.90;46.40;;;;;;5094962;28;20040;-72
2021/07/22 10:15:45;;;;;;;9.25;8.02;;;27.90;46.40;;;;;;5095252;28;20067;-73
2021/07/22 10:18:31;;;;;;;11.32;8.02;;;27.90;46.60;;;;;;5094758;28;20076;-72
2021/07/22 10:21:10;;;;;;;11.27;8.30;;;27.90;46.70;;;;;;5095404;28;20103;-70
2021/07/22 10:23:38;;;;;;;11.65;8.27;;;28.00;46.80;;;;;;5095378;28;20047;-72
2021/07/22 10:26:49;;;;;;;12.57;7.72;;;28.00;46.80;;;;;;5094504;28;20016;-71
2021/07/22 10:33:04;;;;;;;12.73;8.13;;;28.10;47.30;;;;;;5012606;28;20052;-71
2021/07/22 10:35:34;;;;;;;11.30;8.23;;;28.30;47.70;;;;;;5000705;28;20045;-72
2021/07/22 10:38:15;;;;;;;10.63;8.15;;;28.20;46.90;;;;;;5070836;28;20067;-72
2021/07/22 10:40:57;;;;;;;16.67;9.55;;;28.30;47.00;;;;;;5075776;28;20024;-72
2021/07/22 10:43:41;;;;;;;9.10;8.15;;;28.40;52.50;;;;;;5074946;28;20024;-71
2021/07/22 10:46:11;;;;;;;13.85;8.73;;;28.40;47.30;;;;;;5074120;28;20165;-71
2021/07/22 10:48:49;;;;;;;8.80;7.90;;;28.40;48.10;;;;;;5092451;28;20564;-70
2021/07/22 10:51:49;;;;;;;16.60;8.93;;;28.50;52.60;;;;;;5075863;28;20498;-71
2021/07/22 10:54:43;;;;;;;14.20;8.98;;;28.50;51.50;;;;;;5093992;28;20469;-72
2021/07/22 10:57:48;;;;;;;9.73;7.80;;;28.50;53.40;;;;;;5075112;28;20035;-73
2021/07/22 11:00:45;;;;;;;14.18;7.93;;;28.50;47.40;;;;;;5072974;28;20048;-72
2021/07/22 11:03:31;;;;;;;14.23;9.18;;;;;;;;;;5073358;28;20044;-71
2021/07/22 11:06:20;;;;;;;10.85;8.07;;;28.70;47.60;;;;;;5075413;28;20027;-71
2021/07/22 11:09:35;;;;;;;10.05;7.82;;;28.90;46.30;;;;;;5075550;28;20067;-72
2021/07/22 11:12:55;;;;;;;10.40;7.97;;;28.90;45.00;;;;;;5092826;28;20128;-72
2021/07/22 11:16:03;;;;;;;12.27;7.97;;;28.90;45.00;;;;;;5075243;28;20071;-71
2021/07/22 11:18:43;;;;;;;17.90;8.93;;;29.00;45.40;;;;;;5015091;28;20120;-72
2021/07/22 11:21:51;;;;;;;12.20;8.32;;;29.10;49.80;;;;;;5031378;28;20033;-72
2021/07/22 11:24:23;;;;;;;12.23;8.35;;;29.20;48.80;;;;;;5072939;28;20032;-71
2021/07/22 11:27:01;;;;;;;14.93;8.45;;;29.20;47.00;;;;;;5089619;28;20028;-73
2021/07/22 11:29:27;;;;;;;10.82;7.97;;;29.30;47.10;;;;;;5091910;28;20055;-72
2021/07/22 11:32:05;;;;;;;14.50;8.60;;;29.40;46.50;;;;;;5066167;28;20016;-73
2021/07/22 11:37:23;;;;;;;10.98;8.55;;;29.50;46.00;;;;;;5054579;28;20372;-73
2021/07/22 11:39:52;;;;;;;13.40;8.45;;;29.60;45.50;;;;;;5093392;28;20039;-72
2021/07/22 11:42:21;;;;;;;10.45;7.82;;;29.60;46.00;;;;;;5073940;28;20115;-74
2021/07/22 11:48:29;;;;;;;13.98;8.48;;;29.60;44.90;;;;;;4981299;28;20043;-70
2021/07/22 11:51:01;;;;;;;12.07;7.45;;;;;;;;;;5092563;28;20375;-73
2021/07/22 11:53:50;;;;;;;26.13;8.32;;;29.60;45.60;;;;;;5074724;28;20395;-72
2021/07/22 11:56:18;;;;;;;12.77;7.78;;;29.60;46.30;;;;;;5093316;28;20024;-72
2021/07/22 11:58:49;;;;;;;9.65;8.05;;;29.80;46.10;;;;;;5093129;28;20024;-74
2021/07/22 12:01:15;;;;;;;12.10;8.57;;;29.80;46.40;;;;;;5092835;28;20024;-71
2021/07/22 12:03:45;;;;;;;11.18;8.35;;;29.80;45.60;;;;;;5092612;28;20028;-71
2021/07/22 12:06:11;;;;;;;10.50;7.32;;;29.80;45.40;;;;;;5093085;28;20024;-71
2021/07/22 12:08:37;;;;;;;11.18;8.02;;;29.80;45.50;;;;;;5092950;28;20027;-72
2021/07/22 12:11:04;;;;;;;19.17;8.48;;;29.90;46.20;;;;;;5092768;28;20028;-72
2021/07/22 12:13:48;;;;;;;12.77;8.15;;;29.90;46.40;;;;;;5092649;28;20047;-71
2021/07/22 12:16:15;;;;;;;10.52;7.63;;;30.00;45.60;;;;;;5092819;28;20045;-72
2021/07/22 12:18:41;;;;;;;13.02;7.82;;;29.90;45.00;;;;;;5092874;28;20089;-72
2021/07/22 12:21:24;;;;;;;11.35;8.13;;;29.90;45.50;;;;;;5092567;28;20383;-71
2021/07/22 12:23:50;;;;;;;16.33;8.52;;;29.90;46.00;;;;;;5092108;28;20024;-72
2021/07/22 12:26:17;;;;;;;15.07;8.77;;;29.90;46.20;;;;;;5092421;28;20054;-73
2021/07/22 12:28:57;;;;;;;9.55;7.85;;;29.90;46.00;;;;;;5091807;28;20368;-73
2021/07/22 12:31:22;;;;;;;10.88;7.70;;;29.80;45.70;;;;;;5092846;28;20032;-72
2021/07/22 12:33:57;;;;;;;13.93;8.32;;;29.80;45.20;;;;;;5092498;28;20028;-73
2021/07/22 12:36:23;;;;;;;18.35;7.85;;;29.70;46.10;;;;;;5092636;28;20469;-72
2021/07/22 12:39:08;;;;;;;34.33;9.57;;;29.70;46.30;;;;;;5092267;28;20024;-72
2021/07/22 12:41:34;;;;;;;20.33;8.02;;;29.70;46.60;;;;;;5092596;28;20028;-73
2021/07/22 12:44:00;;;;;;;26.42;9.35;;;29.70;46.70;;;;;;5092430;28;20047;-72
2021/07/22 12:49:54;;;;;;;;;;;;;;;;;;;;;
2021/07/22 12:52:50;;;;;;;9.63;8.20;;;29.70;47.30;;;;;;5092108;28;20028;-72
2021/07/22 12:56:09;;;;;;;;;;;;;;;;;;;;;
2021/07/22 12:58:57;;;;;;;89.95;12.63;;;29.80;47.60;;;;;;5090626;28;20484;-71
2021/07/22 13:01:27;;;;;;;22.02;8.77;;;;;;;;;;5095909;28;20056;-74
2021/07/22 13:07:07;;;;;;;12.57;8.25;;;;;;;;;;5013780;28;20136;-76
2021/07/22 13:09:33;;;;;;;14.15;8.02;;;;;;;;;;5013673;28;20038;-73
2021/07/22 13:12:26;;;;;;;10.52;7.93;;;;;;;;;;5038087;28;20036;-70
2021/07/22 13:15:11;;;;;;;23.23;8.40;;;;;;;;;;5082904;28;20404;-73
2021/07/22 13:17:49;;;;;;;17.25;8.05;;;;;;;;;;5091187;28;20036;-72
2021/07/22 13:20:21;;;;;;;13.38;8.13;;;;;;;;;;5073713;28;20024;-71
2021/07/22 13:22:56;;;;;;;11.82;8.30;;;;;;;;;;5071873;28;20040;-72
2021/07/22 13:25:54;;;;;;;10.32;8.35;;;;;;;;;;5072910;28;20040;-70
2021/07/22 13:28:42;;;;;;;15.20;9.05;;;;;;;;;;5094915;28;20032;-72
2021/07/22 13:31:27;;;;;;;;;;;;;;;;;;;;;
2021/07/22 13:33:53;;;;;;;15.65;9.15;;;;;;;;;;5090522;28;20405;-72
2021/07/22 13:36:26;;;;;;;11.40;8.63;;;;;;;;;;5094752;28;20103;-72
2021/07/22 13:39:04;;;;;;;12.32;8.65;;;;;;;;;;5095094;28;20378;-74
2021/07/22 13:42:16;;;;;;;;;;;;;;;;;;;;;
2021/07/22 13:44:45;;;;;;;16.52;9.35;;;;;;;;;;4992509;28;20046;-74
2021/07/22 13:47:11;;;;;;;15.35;8.38;;;;;;;;;;4976802;28;20515;-74
2021/07/22 13:49:40;;;;;;;11.18;8.73;;;;;;;;;;5073898;28;20028;-74
2021/07/22 13:52:12;;;;;;;12.80;9.07;;;;;;;;;;5094761;28;20024;-71